Time;durP1;ratioP1;P1;durP2;ratioP2;P2;SDS_P1;SDS_P2;PMS_P1;PMS_P2;Temp;Humidity;BMP_temperature;BMP_pressure;BME280_temperature;BME280_humidity;BME280_pressure;Samples;Min_cycle;Max_cycle;Signal;HPM_P1;HPM_P2
2021/09/27 00:01:40;;;;;;;10.40;8.85;;;16.10;99.90;;;;;;4995180;28;20678;-88
2021/09/27 00:04:31;;;;;;;10.38;9.32;;;16.10;99.90;;;;;;4996055;28;20571;-89
2021/09/27 00:06:59;;;;;;;11.00;9.32;;;16.10;99.90;;;;;;4974196;28;20196;-88
2021/09/27 00:09:32;;;;;;;10.60;9.13;;;16.10;99.90;;;;;;4976819;28;20216;-89
2021/09/27 00:38:11;;;;;;;11.38;9.77;;;16.10;99.90;;;;;;5031406;28;20292;-88
2021/09/27 00:40:43;;;;;;;10.55;9.45;;;16.10;99.90;;;;;;5018163;28;20230;-89
2021/09/27 00:43:14;;;;;;;10.88;9.10;;;16.10;99.90;;;;;;5017839;28;20266;-89
2021/09/27 00:45:43;;;;;;;11.32;9.60;;;16.10;99.90;;;;;;5020080;28;20234;-90
2021/09/27 00:48:12;;;;;;;10.48;9.38;;;16.00;99.90;;;;;;5027320;28;20199;-90
2021/09/27 00:50:42;;;;;;;10.40;9.15;;;16.00;99.90;;;;;;5017630;28;20682;-89
2021/09/27 00:53:16;;;;;;;10.48;9.25;;;16.00;99.90;;;;;;5028719;28;20750;-89
2021/09/27 00:55:43;;;;;;;10.82;9.27;;;15.90;99.90;;;;;;5036274;28;20218;-89
2021/09/27 00:58:12;;;;;;;11.98;10.02;;;15.90;99.90;;;;;;5037721;28;20297;-89
2021/09/27 01:00:39;;;;;;;10.77;9.68;;;15.90;99.90;;;;;;5033954;28;20696;-89
2021/09/27 01:03:06;;;;;;;12.05;9.68;;;15.90;99.90;;;;;;5037804;28;20650;-89
2021/09/27 01:05:37;;;;;;;10.95;9.57;;;15.80;99.90;;;;;;5034751;28;20234;-89
2021/09/27 01:08:16;;;;;;;16.02;10.27;;;15.80;99.90;;;;;;5018080;28;20673;-89
2021/09/27 01:11:02;;;;;;;13.18;10.35;;;15.80;99.90;;;;;;5017496;28;20237;-90
2021/09/27 01:21:31;;;;;;;12.40;10.40;;;15.70;99.90;;;;;;4995067;28;20228;-91
2021/09/27 01:24:43;;;;;;;12.65;10.55;;;15.70;99.90;;;;;;4998205;28;20199;-91
2021/09/27 01:30:51;;;;;;;14.25;10.93;;;15.70;99.90;;;;;;4995981;28;20255;-91
2021/09/27 01:33:23;;;;;;;13.23;10.55;;;15.70;99.90;;;;;;4955291;28;20208;-91
2021/09/27 01:36:15;;;;;;;13.23;10.80;;;15.70;99.90;;;;;;4997821;28;20555;-89
2021/09/27 01:38:47;;;;;;;13.60;11.07;;;15.70;99.90;;;;;;4997848;28;20547;-91
2021/09/27 01:41:48;;;;;;;14.23;11.70;;;15.80;99.90;;;;;;4998254;28;20567;-90
2021/09/27 01:44:22;;;;;;;14.80;11.65;;;15.80;99.90;;;;;;5001169;28;20683;-90
2021/09/27 01:46:55;;;;;;;13.95;11.45;;;15.80;99.90;;;;;;5001582;28;20212;-90
2021/09/27 01:49:31;;;;;;;14.63;11.60;;;15.70;99.90;;;;;;4985806;28;20216;-88
2021/09/27 01:52:02;;;;;;;16.05;11.75;;;15.80;99.90;;;;;;4997197;28;20222;-92
2021/09/27 01:54:34;;;;;;;14.90;11.48;;;15.80;99.90;;;;;;4997386;28;20196;-91
2021/09/27 01:57:10;;;;;;;13.13;10.45;;;15.80;99.90;;;;;;4997593;28;20191;-90
2021/09/27 01:59:49;;;;;;;13.73;11.05;;;15.80;99.90;;;;;;4997654;28;20192;-91
2021/09/27 02:02:23;;;;;;;13.13;10.82;;;15.80;99.90;;;;;;4997603;28;20191;-91
2021/09/27 02:05:06;;;;;;;13.63;10.85;;;15.80;99.90;;;;;;4997411;28;20581;-90
2021/09/27 02:07:38;;;;;;;13.43;11.10;;;15.80;99.90;;;;;;4993247;28;20275;-90
2021/09/27 02:10:11;;;;;;;12.85;11.10;;;15.80;99.90;;;;;;4998243;28;20231;-91
2021/09/27 04:50:50;;;;;;;10.57;9.38;;;14.40;99.90;;;;;;5120148;22;20228;-87
2021/09/27 04:56:29;;;;;;;11.32;9.77;;;14.40;99.90;;;;;;4997341;28;20235;-87
2021/09/27 04:59:09;;;;;;;12.15;9.95;;;14.40;99.90;;;;;;4986902;28;20216;-87
2021/09/27 05:21:41;;;;;;;13.38;10.00;;;14.10;99.90;;;;;;5007267;28;20224;-86
2021/09/27 05:24:29;;;;;;;11.75;9.05;;;14.00;99.90;;;;;;5007539;28;20192;-89
2021/09/27 05:47:00;;;;;;;10.80;9.30;;;14.30;99.90;;;;;;5005001;28;20199;-86
2021/09/27 05:49:32;;;;;;;10.50;9.38;;;14.20;99.90;;;;;;4993409;28;20193;-88
2021/09/27 05:52:07;;;;;;;11.88;9.05;;;14.20;99.90;;;;;;5003795;28;20208;-86
2021/09/27 05:54:40;;;;;;;12.73;8.82;;;14.20;99.90;;;;;;4994437;28;20200;-86
2021/09/27 05:57:17;;;;;;;10.60;9.20;;;14.30;99.90;;;;;;5003513;28;20200;-89
2021/09/27 05:59:50;;;;;;;9.35;8.20;;;14.20;99.90;;;;;;5001780;28;20270;-87
2021/09/27 06:02:34;;;;;;;11.25;9.00;;;14.30;99.90;;;;;;4995797;28;20242;-91
2021/09/27 06:05:11;;;;;;;11.35;8.43;;;14.30;99.90;;;;;;4998279;28;20227;-86
2021/09/27 06:07:43;;;;;;;11.52;8.88;;;14.30;99.90;;;;;;4996144;28;20219;-88
2021/09/27 06:10:18;;;;;;;14.10;9.18;;;14.40;99.90;;;;;;4966504;28;20228;-86
2021/09/27 06:12:51;;;;;;;8.90;7.85;;;14.40;99.90;;;;;;4977578;28;20557;-87
2021/09/27 06:15:20;;;;;;;9.45;8.07;;;14.50;99.90;;;;;;4969890;28;20196;-91
2021/09/27 06:18:08;;;;;;;10.63;8.63;;;14.60;99.90;;;;;;4968096;28;20209;-90
2021/09/27 06:20:44;;;;;;;10.95;8.30;;;14.80;99.90;;;;;;4968144;28;20631;-89
2021/09/27 06:23:27;;;;;;;9.00;8.10;;;14.80;99.90;;;;;;4962418;28;20209;-90
2021/09/27 06:26:06;;;;;;;11.45;8.23;;;14.90;99.90;;;;;;4970718;28;20232;-90
2021/09/27 06:28:41;;;;;;;10.02;8.13;;;15.10;99.90;;;;;;4972426;28;20223;-90
2021/09/27 06:31:27;;;;;;;10.30;7.82;;;15.20;99.90;;;;;;4970514;28;20228;-89
2021/09/27 06:34:02;;;;;;;8.48;7.20;;;15.30;99.90;;;;;;4970574;28;20201;-90
2021/09/27 06:36:32;;;;;;;7.55;6.82;;;15.30;99.90;;;;;;4980223;28;20250;-90
2021/09/27 06:39:03;;;;;;;9.40;7.63;;;15.30;99.90;;;;;;4977196;28;20267;-90
2021/09/27 06:41:34;;;;;;;8.10;7.22;;;15.20;99.90;;;;;;4974107;28;20224;-88
2021/09/27 06:44:01;;;;;;;8.65;7.43;;;15.20;99.90;;;;;;4985241;28;20211;-88
2021/09/27 06:46:28;;;;;;;8.68;7.57;;;15.20;99.90;;;;;;4981698;28;21724;-90
2021/09/27 06:48:56;;;;;;;7.82;7.03;;;15.20;99.90;;;;;;4973038;28;20211;-90
2021/09/27 06:51:26;;;;;;;8.60;7.30;;;15.20;99.90;;;;;;4979614;28;20236;-91
2021/09/27 06:53:53;;;;;;;9.23;7.30;;;15.30;99.90;;;;;;4982958;28;20193;-90
2021/09/27 06:56:20;;;;;;;8.93;7.63;;;15.40;99.90;;;;;;4981426;28;20222;-89
2021/09/27 06:58:49;;;;;;;9.80;7.65;;;15.50;99.90;;;;;;4985170;28;20208;-90
2021/09/27 07:01:16;;;;;;;8.07;7.28;;;15.70;99.90;;;;;;4983154;28;20263;-90
2021/09/27 07:04:06;;;;;;;11.88;7.75;;;15.90;99.90;;;;;;4981900;28;20209;-91
2021/09/27 07:06:34;;;;;;;10.00;7.00;;;16.20;99.90;;;;;;4980421;28;20307;-91
2021/09/27 07:09:13;;;;;;;9.60;6.93;;;16.50;99.90;;;;;;4977443;28;20239;-88
2021/09/27 07:11:40;;;;;;;8.13;7.05;;;16.70;99.90;;;;;;4976204;28;20715;-91
2021/09/27 07:14:07;;;;;;;9.35;7.55;;;17.10;99.90;;;;;;4973969;28;20581;-88
2021/09/27 07:16:36;;;;;;;9.23;6.97;;;17.40;99.90;;;;;;4978223;28;20223;-90
2021/09/27 07:19:03;;;;;;;7.20;6.50;;;17.70;99.60;;;;;;4971452;28;20264;-90
2021/09/27 07:21:32;;;;;;;7.05;6.35;;;17.90;98.70;;;;;;4967375;28;20225;-88
2021/09/27 07:23:59;;;;;;;6.57;5.88;;;18.20;97.80;;;;;;4978543;28;20223;-90
2021/09/27 07:26:27;;;;;;;9.88;6.70;;;18.40;97.70;;;;;;4973262;28;20217;-91
2021/09/27 07:28:56;;;;;;;6.57;5.97;;;18.60;96.80;;;;;;4978522;28;20236;-85
2021/09/27 07:31:28;;;;;;;6.45;5.75;;;18.70;96.20;;;;;;4985556;28;20225;-86
2021/09/27 07:33:55;;;;;;;6.32;5.72;;;18.80;95.90;;;;;;4983298;28;20224;-87
2021/09/27 07:36:23;;;;;;;6.43;5.82;;;18.80;95.30;;;;;;4976033;28;20227;-87
2021/09/27 07:38:54;;;;;;;6.07;5.47;;;18.80;94.70;;;;;;4988727;28;20631;-87
2021/09/27 07:41:21;;;;;;;6.40;5.80;;;18.80;94.50;;;;;;4987710;28;20311;-85
2021/09/27 07:43:49;;;;;;;5.57;5.07;;;18.70;94.40;;;;;;4984731;28;20213;-85
2021/09/27 07:46:18;;;;;;;6.82;6.00;;;18.50;94.60;;;;;;4986865;28;20747;-87
2021/09/27 07:48:45;;;;;;;6.88;6.25;;;18.20;95.40;;;;;;4977412;28;20251;-86
2021/09/27 07:51:20;;;;;;;6.80;5.95;;;18.30;95.80;;;;;;4984035;28;20232;-86
2021/09/27 07:53:47;;;;;;;6.40;5.65;;;18.50;95.50;;;;;;4988316;28;20227;-87
2021/09/27 07:56:16;;;;;;;8.27;5.88;;;18.60;95.40;;;;;;4971428;28;20231;-86
2021/09/27 07:58:43;;;;;;;8.23;5.78;;;18.50;95.20;;;;;;4982538;28;20200;-85
2021/09/27 08:01:29;;;;;;;6.03;5.43;;;18.30;95.40;;;;;;4979371;28;20233;-85
2021/09/27 08:03:56;;;;;;;8.98;6.50;;;18.20;96.00;;;;;;4975722;28;20204;-86
2021/09/27 08:06:23;;;;;;;6.13;5.45;;;18.00;96.10;;;;;;4976544;28;20595;-85
2021/09/27 08:09:25;;;;;;;7.53;5.25;;;17.90;95.90;;;;;;4980851;28;20287;-85
2021/09/27 08:14:28;;;;;;;9.63;5.88;;;17.80;96.80;;;;;;5832632;22;20235;-86
2021/09/27 08:24:29;;;;;;;6.82;6.20;;;17.90;97.00;;;;;;4980021;28;20537;-87
2021/09/27 08:26:56;;;;;;;7.40;5.90;;;18.00;96.20;;;;;;4998246;28;20286;-89
2021/09/27 08:29:23;;;;;;;6.80;6.10;;;18.20;95.60;;;;;;4998547;28;20210;-89
2021/09/27 08:31:51;;;;;;;7.32;6.10;;;18.40;93.90;;;;;;4986735;28;20287;-90
2021/09/27 08:34:33;;;;;;;6.70;6.10;;;18.50;93.70;;;;;;4997057;28;20200;-86
2021/09/27 08:37:00;;;;;;;8.07;6.45;;;18.50;93.20;;;;;;4995447;28;20202;-87
2021/09/27 08:39:27;;;;;;;9.20;6.32;;;18.70;93.60;;;;;;5001449;28;20280;-86
2021/09/27 08:41:59;;;;;;;9.05;6.75;;;18.80;94.00;;;;;;5000261;28;20200;-88
2021/09/27 08:44:38;;;;;;;8.38;7.40;;;18.90;94.00;;;;;;5003030;28;20283;-84
2021/09/27 08:47:12;;;;;;;7.75;6.95;;;18.90;93.60;;;;;;5004819;28;20200;-85
2021/09/27 08:49:43;;;;;;;7.85;6.95;;;18.90;94.20;;;;;;5004682;28;20202;-86
2021/09/27 08:52:14;;;;;;;9.10;7.07;;;18.90;93.10;;;;;;4998874;28;20224;-87
2021/09/27 08:54:47;;;;;;;7.95;7.20;;;19.00;92.90;;;;;;4993098;28;20646;-86
2021/09/27 08:57:22;;;;;;;8.20;6.97;;;19.40;92.50;;;;;;4990729;28;20213;-84
2021/09/27 08:59:56;;;;;;;7.35;6.63;;;19.90;91.60;;;;;;4992983;28;20226;-88
2021/09/27 09:02:42;;;;;;;6.93;6.32;;;20.10;90.80;;;;;;4987454;28;20196;-88
2021/09/27 09:05:15;;;;;;;9.57;7.40;;;20.40;90.80;;;;;;4993556;28;20228;-86
2021/09/27 09:07:48;;;;;;;7.97;6.78;;;20.00;91.10;;;;;;4993808;28;20196;-87
2021/09/27 09:10:19;;;;;;;10.40;7.05;;;19.90;91.50;;;;;;4996208;28;20232;-89
2021/09/27 09:12:52;;;;;;;8.20;7.40;;;19.80;90.20;;;;;;4990005;28;20704;-88
2021/09/27 09:15:22;;;;;;;7.00;6.35;;;20.10;91.00;;;;;;4984464;28;20558;-88
2021/09/27 09:17:53;;;;;;;7.30;6.15;;;21.00;91.00;;;;;;4979386;28;20540;-84
2021/09/27 09:20:24;;;;;;;6.85;6.03;;;22.70;76.40;;;;;;4975017;28;20232;-86
2021/09/27 09:22:51;;;;;;;8.30;6.57;;;24.10;59.60;;;;;;4970847;28;20275;-87
2021/09/27 09:25:27;;;;;;;6.15;5.65;;;24.60;50.70;;;;;;4973156;28;20243;-88
2021/09/27 09:27:54;;;;;;;7.13;6.25;;;24.90;46.80;;;;;;4975619;28;20204;-87
2021/09/27 09:30:24;;;;;;;7.72;5.13;;;26.10;42.60;;;;;;4971076;28;20227;-87
2021/09/27 09:32:55;;;;;;;5.68;5.18;;;26.90;38.60;;;;;;4974063;28;20200;-87
2021/09/27 09:35:25;;;;;;;6.07;5.57;;;28.60;33.30;;;;;;4967326;28;20243;-88
2021/09/27 09:37:55;;;;;;;5.68;5.28;;;30.20;26.20;;;;;;4964713;28;20204;-88
2021/09/27 09:40:25;;;;;;;6.68;5.20;;;30.70;25.70;;;;;;4975580;28;20252;-88
2021/09/27 09:42:59;;;;;;;5.53;5.00;;;32.00;21.60;;;;;;4971412;28;20708;-89
2021/09/27 09:45:29;;;;;;;6.65;5.35;;;32.60;20.10;;;;;;4964076;28;20225;-89
2021/09/27 09:48:28;;;;;;;6.18;5.32;;;33.10;18.20;;;;;;4971993;28;20204;-89
2021/09/27 09:50:57;;;;;;;6.07;5.57;;;33.20;18.20;;;;;;4967787;28;20231;-91
2021/09/27 09:53:27;;;;;;;6.30;5.80;;;33.00;18.10;;;;;;4967720;28;20298;-87
2021/09/27 09:56:01;;;;;;;5.70;5.30;;;33.30;18.20;;;;;;4964709;28;20228;-87
2021/09/27 09:58:41;;;;;;;7.10;6.30;;;33.00;18.80;;;;;;4970959;28;20690;-86
2021/09/27 10:01:17;;;;;;;6.72;5.60;;;33.00;18.20;;;;;;4969008;28;20236;-86
2021/09/27 10:03:58;;;;;;;6.05;5.57;;;32.90;18.10;;;;;;4968344;28;20217;-88
2021/09/27 10:06:32;;;;;;;5.78;5.38;;;32.50;19.70;;;;;;4963716;28;20224;-89
2021/09/27 10:09:01;;;;;;;6.65;6.00;;;31.20;20.40;;;;;;4969887;28;20622;-89
2021/09/27 10:11:34;;;;;;;6.07;5.20;;;30.20;22.50;;;;;;4970790;28;20228;-88
2021/09/27 10:14:16;;;;;;;7.30;5.82;;;28.50;26.70;;;;;;4971989;28;20235;-85
2021/09/27 10:16:47;;;;;;;6.68;6.07;;;27.30;31.60;;;;;;4978202;28;20246;-86
2021/09/27 10:19:24;;;;;;;6.30;5.80;;;25.90;36.80;;;;;;4965690;28;20218;-86
2021/09/27 10:21:58;;;;;;;6.53;5.72;;;25.40;36.40;;;;;;4973490;28;20223;-87
2021/09/27 10:24:38;;;;;;;6.93;6.20;;;24.90;36.20;;;;;;4968572;28;20210;-86
2021/09/27 10:27:17;;;;;;;6.80;6.15;;;24.40;41.20;;;;;;4972834;28;20232;-87
2021/09/27 10:29:45;;;;;;;6.70;6.07;;;24.10;41.50;;;;;;4967067;28;20201;-84
2021/09/27 10:32:22;;;;;;;7.05;6.45;;;23.50;44.60;;;;;;4973461;28;20265;-86
2021/09/27 10:34:52;;;;;;;6.93;6.25;;;23.80;50.20;;;;;;4966692;28;20245;-86
2021/09/27 10:37:23;;;;;;;5.97;5.25;;;24.40;46.60;;;;;;4975959;28;20295;-88
2021/09/27 10:39:53;;;;;;;6.13;5.55;;;25.50;41.10;;;;;;4969108;28;20232;-88
2021/09/27 10:42:26;;;;;;;5.78;5.22;;;26.50;35.70;;;;;;4965133;28;20580;-87
2021/09/27 10:44:54;;;;;;;5.90;5.40;;;27.10;31.40;;;;;;4966981;28;20709;-88
2021/09/27 10:47:25;;;;;;;5.43;4.93;;;27.70;31.60;;;;;;4974503;28;20212;-88
2021/09/27 10:49:59;;;;;;;5.47;5.05;;;28.20;28.50;;;;;;4973882;28;20235;-87
2021/09/27 10:52:41;;;;;;;5.85;5.03;;;28.00;30.20;;;;;;4972585;28;20223;-88
2021/09/27 10:55:18;;;;;;;5.95;5.45;;;28.70;26.80;;;;;;4975012;28;20224;-88
2021/09/27 10:57:51;;;;;;;5.88;5.38;;;29.10;25.80;;;;;;4972280;28;20201;-85
2021/09/27 11:00:29;;;;;;;6.13;5.53;;;27.70;26.70;;;;;;4975649;28;20235;-87
2021/09/27 11:03:02;;;;;;;5.85;5.35;;;27.10;29.70;;;;;;4971244;28;20648;-86
2021/09/27 11:05:50;;;;;;;6.22;5.72;;;26.20;32.50;;;;;;4963868;28;20242;-86
2021/09/27 11:08:31;;;;;;;6.65;6.05;;;25.90;32.50;;;;;;4979498;28;20204;-84
2021/09/27 11:10:58;;;;;;;6.07;5.57;;;25.60;36.10;;;;;;4957465;28;20224;-86
2021/09/27 11:13:38;;;;;;;6.90;6.35;;;25.60;36.70;;;;;;4977695;28;20224;-84
2021/09/27 11:16:15;;;;;;;7.10;6.43;;;25.30;36.40;;;;;;4966918;28;20220;-85
2021/09/27 11:18:53;;;;;;;7.63;6.60;;;25.10;36.30;;;;;;4968633;28;20207;-85
2021/09/27 11:21:40;;;;;;;6.93;6.32;;;25.00;36.30;;;;;;4970494;28;20232;-82
2021/09/27 11:24:42;;;;;;;7.15;6.00;;;25.00;36.20;;;;;;4985794;28;20226;-83
2021/09/27 11:27:13;;;;;;;6.65;6.05;;;25.20;37.90;;;;;;4966283;28;20225;-81
2021/09/27 11:29:49;;;;;;;6.25;5.65;;;25.10;36.30;;;;;;4968794;28;20646;-87
2021/09/27 11:32:43;;;;;;;5.80;5.30;;;24.90;36.20;;;;;;4974750;28;20216;-86
2021/09/27 11:35:29;;;;;;;6.82;5.78;;;24.50;35.10;;;;;;4977826;28;20221;-84
2021/09/27 11:38:27;;;;;;;6.07;5.57;;;24.30;35.70;;;;;;4975021;28;20604;-84
2021/09/27 11:41:02;;;;;;;6.18;5.68;;;24.00;37.60;;;;;;4974415;28;20248;-84
2021/09/27 11:43:36;;;;;;;7.93;5.95;;;24.30;36.80;;;;;;4975090;28;20200;-84
2021/09/27 11:46:22;;;;;;;6.20;5.60;;;24.10;37.40;;;;;;4960212;28;20224;-84
2021/09/27 11:49:24;;;;;;;6.28;5.68;;;24.30;37.50;;;;;;4970010;28;20305;-84
2021/09/27 11:52:04;;;;;;;7.50;5.68;;;23.80;36.70;;;;;;4969216;28;20304;-84
2021/09/27 11:54:43;;;;;;;5.95;5.40;;;23.40;37.00;;;;;;4972009;28;20196;-87
2021/09/27 11:57:22;;;;;;;6.00;5.50;;;23.30;38.40;;;;;;4974592;28;20200;-86
2021/09/27 12:00:03;;;;;;;6.82;6.13;;;23.30;38.30;;;;;;4970076;28;20227;-84
2021/09/27 12:02:48;;;;;;;7.00;5.82;;;23.50;38.60;;;;;;4967257;28;20273;-86
2021/09/27 12:05:34;;;;;;;6.93;6.13;;;23.70;39.00;;;;;;4974047;28;20228;-85
2021/09/27 12:08:05;;;;;;;7.03;6.30;;;23.90;38.10;;;;;;4973574;28;20207;-84
2021/09/27 12:10:41;;;;;;;6.40;5.90;;;23.70;38.00;;;;;;4975104;28;20600;-85
2021/09/27 12:13:13;;;;;;;5.95;5.45;;;23.80;36.20;;;;;;4977011;28;20247;-85
2021/09/27 12:15:44;;;;;;;6.78;6.18;;;23.40;37.40;;;;;;4973746;28;20244;-84
2021/09/27 12:18:37;;;;;;;7.43;5.93;;;23.20;41.70;;;;;;4973373;28;20671;-85
2021/09/27 12:21:09;;;;;;;6.40;5.90;;;22.90;39.80;;;;;;4971309;28;20228;-84
2021/09/27 12:23:42;;;;;;;7.03;6.28;;;22.60;39.80;;;;;;4971857;28;20230;-85
2021/09/27 12:26:16;;;;;;;6.57;5.97;;;22.40;44.50;;;;;;4973741;28;20228;-85
2021/09/27 12:28:43;;;;;;;6.97;6.30;;;22.30;45.90;;;;;;4972923;28;20196;-84
2021/09/27 12:31:10;;;;;;;6.80;6.18;;;22.30;46.90;;;;;;4976665;28;20239;-84
2021/09/27 12:33:37;;;;;;;6.82;6.22;;;22.40;46.00;;;;;;4977641;28;20193;-85
2021/09/27 12:36:07;;;;;;;7.05;6.38;;;22.60;47.20;;;;;;4977484;28;20224;-85
2021/09/27 12:38:34;;;;;;;7.65;5.93;;;22.80;42.30;;;;;;4977707;28;20211;-85
2021/09/27 12:41:03;;;;;;;6.82;6.00;;;23.00;42.50;;;;;;4975501;28;20291;-85
2021/09/27 12:43:33;;;;;;;6.60;6.00;;;23.10;40.50;;;;;;4952677;28;20265;-84
2021/09/27 12:46:06;;;;;;;6.30;5.70;;;23.20;40.80;;;;;;4975960;28;20238;-84
2021/09/27 12:48:39;;;;;;;6.47;5.93;;;23.40;41.30;;;;;;4969255;28;20197;-87
2021/09/27 12:51:09;;;;;;;7.35;6.65;;;23.60;39.60;;;;;;4972221;28;20251;-84
2021/09/27 12:53:44;;;;;;;6.65;6.05;;;23.70;39.70;;;;;;4974025;28;20208;-85
2021/09/27 12:56:12;;;;;;;6.68;6.10;;;23.70;37.60;;;;;;4976374;28;20234;-85
2021/09/27 12:58:44;;;;;;;6.72;6.03;;;23.50;38.10;;;;;;4978575;28;20211;-84
2021/09/27 13:01:15;;;;;;;6.57;5.97;;;23.30;39.30;;;;;;4977813;28;20224;-85
2021/09/27 13:03:48;;;;;;;6.40;5.80;;;22.90;41.80;;;;;;4971495;28;20231;-84
2021/09/27 13:06:24;;;;;;;7.03;5.72;;;22.70;42.80;;;;;;4967939;28;20239;-87
2021/09/27 13:09:03;;;;;;;8.02;6.15;;;22.50;43.80;;;;;;4973865;28;20665;-84
2021/09/27 13:11:33;;;;;;;6.15;5.65;;;22.50;46.10;;;;;;4971594;28;20247;-89
2021/09/27 13:14:08;;;;;;;6.30;5.70;;;22.30;48.50;;;;;;4980319;28;20584;-87
2021/09/27 13:16:38;;;;;;;7.00;6.40;;;22.20;47.70;;;;;;4974484;28;20227;-86
2021/09/27 13:19:06;;;;;;;6.85;5.97;;;22.00;48.10;;;;;;4974918;28;20223;-84
2021/09/27 13:21:44;;;;;;;10.13;6.65;;;21.90;50.30;;;;;;4974412;28;20670;-86
2021/09/27 13:24:14;;;;;;;6.63;5.93;;;21.90;47.90;;;;;;4974882;28;20619;-85
2021/09/27 13:26:44;;;;;;;8.45;6.63;;;22.20;48.00;;;;;;4975571;28;20250;-86
2021/09/27 13:29:28;;;;;;;6.80;6.20;;;22.20;45.80;;;;;;4975521;28;20205;-85
2021/09/27 13:31:58;;;;;;;7.38;5.85;;;22.20;44.80;;;;;;4968082;28;20692;-85
2021/09/27 13:34:35;;;;;;;6.40;5.80;;;22.20;45.80;;;;;;4970284;28;20193;-87
2021/09/27 13:37:02;;;;;;;7.32;5.47;;;22.20;43.80;;;;;;4968705;28;20221;-88
2021/09/27 13:39:39;;;;;;;5.85;5.35;;;22.30;43.00;;;;;;4964936;28;20196;-85
2021/09/27 13:42:08;;;;;;;5.93;5.43;;;22.30;41.70;;;;;;4967627;28;20216;-85
2021/09/27 13:44:55;;;;;;;6.63;5.90;;;22.30;42.30;;;;;;4978251;28;20197;-85
2021/09/27 13:47:25;;;;;;;6.32;5.80;;;22.10;44.40;;;;;;4979025;28;20208;-84
2021/09/27 13:49:53;;;;;;;6.80;6.18;;;21.90;45.50;;;;;;4976675;28;20224;-86
2021/09/27 13:52:22;;;;;;;6.97;6.38;;;21.80;47.30;;;;;;4968955;28;20229;-86
2021/09/27 13:54:48;;;;;;;7.50;6.57;;;21.60;47.90;;;;;;4977882;28;20232;-87
2021/09/27 13:57:15;;;;;;;7.07;6.38;;;21.50;48.20;;;;;;4974729;28;20205;-84
2021/09/27 14:06:32;;;;;;;7.53;6.80;;;21.50;52.50;;;;;;4981861;28;20199;-83
2021/09/27 14:09:00;;;;;;;8.00;7.20;;;21.60;52.40;;;;;;4982128;28;20300;-83
2021/09/27 14:11:27;;;;;;;10.20;7.85;;;21.60;52.40;;;;;;4982997;28;20207;-83
2021/09/27 14:21:42;;;;;;;12.90;8.85;;;21.30;53.80;;;;;;5253649;22;20230;-84
2021/09/27 14:24:28;;;;;;;7.03;6.32;;;21.40;52.70;;;;;;5001552;28;20199;-83
2021/09/27 14:27:08;;;;;;;6.25;5.65;;;21.40;55.00;;;;;;4995202;28;20204;-82
2021/09/27 14:29:35;;;;;;;11.32;8.50;;;21.40;54.20;;;;;;4999377;28;20196;-83
2021/09/27 14:32:03;;;;;;;6.47;5.90;;;21.50;54.60;;;;;;4999757;28;20206;-83
2021/09/27 14:34:29;;;;;;;6.45;5.85;;;21.60;54.50;;;;;;4992098;28;20224;-83
2021/09/27 14:36:58;;;;;;;9.45;6.18;;;21.60;52.70;;;;;;4999661;28;20195;-83
2021/09/27 14:39:28;;;;;;;6.32;5.72;;;21.60;55.30;;;;;;5000036;28;20255;-85
2021/09/27 14:45:22;;;;;;;6.72;6.13;;;21.50;57.30;;;;;;4994820;28;20179;-84
2021/09/27 14:52:05;;;;;;;8.35;6.95;;;21.20;57.00;;;;;;4998087;28;20222;-85
2021/09/27 14:54:33;;;;;;;6.65;6.07;;;21.10;56.90;;;;;;4999217;28;20185;-85
2021/09/27 14:57:00;;;;;;;7.80;5.90;;;21.00;56.80;;;;;;4998540;28;20262;-85
2021/09/27 14:59:29;;;;;;;7.03;6.40;;;21.00;56.80;;;;;;4998955;28;20193;-85
2021/09/27 15:01:56;;;;;;;7.15;6.45;;;21.00;60.70;;;;;;4993519;28;20291;-85
2021/09/27 15:04:23;;;;;;;6.47;5.88;;;21.00;58.10;;;;;;4990962;28;20197;-85
2021/09/27 15:06:50;;;;;;;6.57;5.80;;;21.10;56.90;;;;;;4980302;28;20219;-86
2021/09/27 15:09:17;;;;;;;7.82;7.03;;;21.20;56.80;;;;;;4992393;28;20275;-85
2021/09/27 15:11:46;;;;;;;7.35;6.65;;;21.10;56.90;;;;;;5010365;28;20234;-85
2021/09/27 15:16:49;;;;;;;7.40;6.57;;;21.10;56.90;;;;;;5059465;22;20227;-85
2021/09/27 15:19:18;;;;;;;7.30;6.43;;;21.10;56.90;;;;;;4998186;28;20194;-85
2021/09/27 15:22:32;;;;;;;8.77;7.30;;;21.10;56.90;;;;;;4997853;28;20243;-85
2021/09/27 15:24:59;;;;;;;7.03;6.38;;;21.00;59.20;;;;;;5001182;28;20284;-86
2021/09/27 15:27:28;;;;;;;6.90;6.25;;;20.80;58.70;;;;;;4980852;28;20197;-86
2021/09/27 15:29:55;;;;;;;7.40;6.70;;;20.70;60.70;;;;;;4985366;28;20224;-87
2021/09/27 15:32:22;;;;;;;7.88;6.95;;;20.50;62.40;;;;;;4975770;28;20215;-86
2021/09/27 15:34:50;;;;;;;7.25;6.55;;;20.50;64.00;;;;;;4982424;28;20672;-86
2021/09/27 15:37:22;;;;;;;7.88;6.65;;;20.40;65.80;;;;;;4983106;28;20204;-85
2021/09/27 15:39:50;;;;;;;7.68;6.93;;;20.30;69.00;;;;;;4982930;28;20622;-85
2021/09/27 15:42:18;;;;;;;7.88;6.93;;;20.20;70.40;;;;;;4974902;28;20227;-85
2021/09/27 15:44:46;;;;;;;8.15;7.35;;;20.10;73.10;;;;;;4989489;28;20720;-85
2021/09/27 15:47:17;;;;;;;7.22;6.63;;;20.10;74.70;;;;;;4984937;28;20295;-85
2021/09/27 15:49:46;;;;;;;9.98;7.40;;;20.00;76.10;;;;;;4983378;28;20193;-85
2021/09/27 15:52:15;;;;;;;7.53;6.82;;;20.00;76.90;;;;;;4985900;28;20204;-84
2021/09/27 15:55:13;;;;;;;7.55;6.85;;;19.90;77.00;;;;;;4984291;28;20197;-88
2021/09/27 15:57:40;;;;;;;7.72;6.95;;;19.80;77.70;;;;;;4982134;28;20199;-85
2021/09/27 16:00:11;;;;;;;9.60;7.07;;;19.70;79.50;;;;;;4989953;28;20262;-85
2021/09/27 16:02:38;;;;;;;8.10;6.90;;;19.60;80.50;;;;;;4984249;28;20208;-85
2021/09/27 16:05:28;;;;;;;10.13;7.25;;;19.70;80.60;;;;;;4983187;28;20310;-85
2021/09/27 16:07:55;;;;;;;8.00;7.15;;;19.70;80.60;;;;;;4983580;28;20195;-85
2021/09/27 16:10:22;;;;;;;8.55;7.57;;;19.60;80.50;;;;;;4982513;28;20296;-88
2021/09/27 16:12:49;;;;;;;7.38;6.35;;;19.60;80.50;;;;;;4978824;28;20232;-88
2021/09/27 16:15:17;;;;;;;8.35;6.95;;;19.50;80.50;;;;;;4979340;28;20236;-88
2021/09/27 16:17:44;;;;;;;7.45;6.78;;;19.40;80.40;;;;;;4980967;28;20665;-88
2021/09/27 16:20:12;;;;;;;8.20;7.40;;;19.40;80.40;;;;;;4975139;28;20216;-88
2021/09/27 16:22:40;;;;;;;8.05;7.25;;;19.40;81.00;;;;;;4987982;28;20263;-88
2021/09/27 16:25:07;;;;;;;8.93;7.85;;;19.30;83.20;;;;;;4975133;28;20237;-88
2021/09/27 16:27:34;;;;;;;9.32;8.23;;;19.20;83.60;;;;;;4970252;28;20212;-88
2021/09/27 16:30:01;;;;;;;9.70;7.60;;;19.20;84.40;;;;;;4974779;28;20240;-87
2021/09/27 16:32:30;;;;;;;10.50;7.28;;;19.10;85.80;;;;;;4976169;28;20219;-87
2021/09/27 16:34:57;;;;;;;7.43;6.72;;;19.10;85.60;;;;;;4981566;28;20559;-89
2021/09/27 16:37:24;;;;;;;7.57;6.88;;;19.20;86.20;;;;;;4981022;28;20201;-88
2021/09/27 16:39:51;;;;;;;7.72;7.05;;;19.10;86.70;;;;;;4975151;28;20242;-87
2021/09/27 16:42:19;;;;;;;7.70;6.93;;;19.10;87.40;;;;;;4976782;28;20208;-87
2021/09/27 16:44:46;;;;;;;12.48;7.10;;;19.10;87.90;;;;;;4975025;28;20214;-87
2021/09/27 16:47:15;;;;;;;9.15;7.13;;;19.00;88.40;;;;;;4974712;28;20683;-88
2021/09/27 16:49:44;;;;;;;8.13;7.32;;;18.90;88.70;;;;;;4975112;28;20673;-87
2021/09/27 16:52:13;;;;;;;7.82;7.03;;;18.90;89.40;;;;;;4979706;28;20215;-89
2021/09/27 16:54:40;;;;;;;9.55;7.45;;;18.80;89.50;;;;;;4974808;28;20227;-87
2021/09/27 17:00:34;;;;;;;8.35;6.93;;;18.80;90.10;;;;;;4962812;28;20184;-87
2021/09/27 17:03:07;;;;;;;9.02;7.85;;;18.70;90.50;;;;;;4976942;28;20680;-87
2021/09/27 17:05:36;;;;;;;10.10;7.57;;;18.70;90.60;;;;;;4963072;28;20224;-86
2021/09/27 17:08:03;;;;;;;9.85;7.57;;;18.60;91.00;;;;;;4976692;28;20185;-86
2021/09/27 17:10:36;;;;;;;9.23;7.70;;;18.50;91.20;;;;;;4976724;28;20233;-87
2021/09/27 17:18:22;;;;;;;9.23;8.00;;;18.30;92.20;;;;;;5000602;28;20186;-85
2021/09/27 17:20:54;;;;;;;9.05;8.07;;;18.20;92.80;;;;;;4999970;28;20250;-85
2021/09/27 17:26:44;;;;;;;14.95;9.90;;;18.10;93.70;;;;;;4989537;28;20251;-85
2021/09/27 17:29:30;;;;;;;12.00;9.45;;;18.10;94.20;;;;;;5001731;28;20199;-85
2021/09/27 17:31:57;;;;;;;9.85;8.85;;;18.10;94.60;;;;;;5003826;28;20230;-86
2021/09/27 17:34:53;;;;;;;11.10;9.88;;;18.00;94.80;;;;;;5005149;28;20216;-85
2021/09/27 17:37:21;;;;;;;10.70;9.43;;;18.00;94.90;;;;;;4997295;28;20221;-85
2021/09/27 17:39:48;;;;;;;12.65;9.23;;;17.90;95.20;;;;;;4999959;28;20644;-86
2021/09/27 17:42:15;;;;;;;10.45;9.35;;;17.80;95.60;;;;;;5005186;28;20204;-85
2021/09/27 17:44:42;;;;;;;11.38;10.15;;;17.80;95.90;;;;;;5002099;28;20292;-85
2021/09/27 17:47:09;;;;;;;10.18;9.05;;;17.80;96.00;;;;;;5002318;28;20206;-86
2021/09/27 17:49:37;;;;;;;10.88;9.77;;;17.80;96.50;;;;;;4999394;28;20204;-85
2021/09/27 17:52:05;;;;;;;12.48;9.57;;;17.70;96.70;;;;;;4996112;28;20204;-85
2021/09/27 17:54:33;;;;;;;11.93;9.98;;;17.70;96.80;;;;;;5013190;28;20224;-85
2021/09/27 17:57:00;;;;;;;11.23;10.10;;;17.70;97.20;;;;;;5002642;28;20218;-84
2021/09/27 17:59:27;;;;;;;13.13;10.43;;;17.70;97.00;;;;;;4998078;28;20259;-83